createdAt,value
2023-01-20T00:01:29.595Z,12.70
2023-01-20T00:03:57.771Z,12.60
2023-01-20T00:06:27.791Z,12.60
2023-01-20T00:09:02.286Z,12.60
2023-01-20T00:11:30.224Z,12.90
2023-01-20T00:14:01.861Z,13.00
2023-01-20T00:16:31.123Z,13.00
2023-01-20T00:18:58.580Z,13.20
2023-01-20T00:21:25.578Z,13.10
2023-01-20T00:23:52.600Z,13.10
2023-01-20T00:26:22.447Z,13.30
2023-01-20T00:28:50.435Z,13.20
2023-01-20T00:31:23.129Z,13.20
2023-01-20T00:33:51.687Z,13.20
2023-01-20T00:36:20.532Z,13.20
2023-01-20T00:38:48.370Z,13.20
2023-01-20T00:41:16.497Z,13.20
2023-01-20T00:43:43.752Z,13.10
2023-01-20T00:46:11.278Z,13.00
2023-01-20T00:48:38.965Z,13.00
2023-01-20T00:51:07.850Z,13.00
2023-01-20T00:53:35.391Z,13.00
2023-01-20T00:56:02.536Z,13.00
2023-01-20T00:58:29.525Z,13.00
2023-01-20T01:00:58.687Z,12.90
2023-01-20T01:03:28.119Z,13.00
2023-01-20T01:06:04.760Z,13.00
2023-01-20T01:08:31.725Z,13.00
2023-01-20T01:10:58.664Z,12.80
2023-01-20T01:13:25.723Z,12.80
2023-01-20T01:15:52.925Z,12.80
2023-01-20T01:18:19.873Z,12.80
2023-01-20T01:20:46.780Z,12.80
2023-01-20T01:23:13.903Z,12.70
2023-01-20T01:25:40.877Z,12.60
2023-01-20T01:28:08.147Z,12.60
2023-01-20T01:30:35.274Z,12.60
2023-01-20T01:33:02.232Z,12.60
2023-01-20T01:35:29.171Z,12.50
2023-01-20T01:37:56.142Z,12.60
2023-01-20T01:40:23.207Z,12.70
2023-01-20T01:42:50.141Z,12.70
2023-01-20T01:45:23.680Z,12.60
2023-01-20T01:47:59.250Z,12.60
2023-01-20T01:50:30.726Z,12.50
2023-01-20T01:52:57.821Z,12.50
2023-01-20T01:55:29.599Z,12.50
2023-01-20T01:57:58.497Z,12.50
2023-01-20T02:00:25.664Z,12.60
2023-01-20T02:02:53.763Z,12.60
2023-01-20T02:05:21.943Z,12.50
2023-01-20T02:07:49.934Z,12.50
2023-01-20T02:10:17.560Z,12.50
2023-01-20T02:12:50.307Z,12.40
2023-01-20T02:15:22.998Z,12.30
2023-01-20T02:18:25.147Z,12.40
2023-01-20T02:21:00.948Z,12.60
2023-01-20T02:23:55.831Z,12.70
2023-01-20T02:27:01.523Z,12.70
2023-01-20T02:30:02.183Z,12.40
2023-01-20T02:32:47.597Z,12.30
2023-01-20T02:35:26.514Z,12.40
2023-01-20T02:38:03.100Z,12.80
2023-01-20T02:40:49.940Z,12.90
2023-01-20T02:43:38.632Z,12.90
2023-01-20T02:46:16.069Z,12.90
2023-01-20T02:48:56.526Z,12.70
2023-01-20T02:51:30.951Z,12.70
2023-01-20T02:54:06.454Z,12.70
2023-01-20T02:56:35.933Z,12.90
2023-01-20T02:59:11.330Z,12.70
2023-01-20T03:01:55.020Z,12.60
2023-01-20T03:04:27.570Z,12.60
2023-01-20T03:06:56.988Z,12.50
2023-01-20T03:09:30.541Z,12.80
2023-01-20T03:12:04.196Z,12.80
2023-01-20T03:14:31.517Z,12.80
2023-01-20T03:16:58.507Z,12.80
2023-01-20T03:19:25.481Z,12.70
2023-01-20T03:21:52.713Z,12.60
2023-01-20T03:24:20.834Z,12.50
2023-01-20T03:26:47.787Z,12.40
2023-01-20T03:29:16.164Z,12.50
2023-01-20T03:31:55.535Z,12.40
2023-01-20T03:34:25.013Z,12.40
2023-01-20T03:36:54.321Z,12.30
2023-01-20T03:39:22.792Z,12.10
2023-01-20T03:41:52.517Z,12.20
2023-01-20T03:44:38.141Z,12.20
2023-01-20T03:47:26.845Z,12.30
2023-01-20T03:50:12.504Z,12.40
2023-01-20T03:53:05.865Z,12.40
2023-01-20T03:55:32.783Z,12.30
2023-01-20T03:58:08.514Z,12.20
2023-01-20T04:00:39.585Z,12.10
2023-01-20T04:03:13.189Z,12.10
2023-01-20T04:05:41.396Z,12.20
2023-01-20T04:08:10.623Z,12.30
2023-01-20T04:10:41.861Z,12.20
2023-01-20T04:13:09.470Z,12.20
2023-01-20T04:15:41.765Z,12.30
2023-01-20T04:18:12.275Z,12.40
2023-01-20T04:20:39.857Z,12.40
2023-01-20T04:23:08.342Z,12.40
2023-01-20T04:25:36.158Z,12.50
2023-01-20T04:28:03.111Z,12.50
2023-01-20T04:30:30.092Z,12.50
2023-01-20T04:32:57.024Z,12.50
2023-01-20T04:35:24.059Z,12.60
2023-01-20T04:37:51.009Z,12.50
2023-01-20T04:40:18.096Z,12.40
2023-01-20T04:42:45.021Z,12.40
2023-01-20T04:45:16.699Z,12.50
2023-01-20T04:47:44.350Z,12.50
2023-01-20T04:50:12.827Z,12.50
2023-01-20T04:52:39.765Z,12.40
2023-01-20T04:55:07.136Z,12.30
2023-01-20T04:57:34.177Z,12.20
2023-01-20T05:00:01.136Z,12.30
2023-01-20T05:02:28.118Z,12.20
2023-01-20T05:04:55.120Z,12.20
2023-01-20T05:07:22.287Z,12.20
2023-01-20T05:09:49.283Z,12.20
2023-01-20T05:12:16.232Z,12.20
2023-01-20T05:14:43.163Z,12.20
2023-01-20T05:17:10.075Z,12.30
2023-01-20T05:19:37.035Z,12.20
2023-01-20T05:22:03.981Z,12.20
2023-01-20T05:24:30.992Z,12.30
2023-01-20T05:27:01.374Z,12.30
2023-01-20T05:29:29.048Z,12.20
2023-01-20T05:31:56.063Z,12.20
2023-01-20T05:34:23.121Z,12.20
2023-01-20T05:36:53.996Z,12.10
2023-01-20T05:39:21.347Z,12.10
2023-01-20T05:41:48.557Z,12.10
2023-01-20T05:44:16.073Z,11.90
2023-01-20T05:46:43.201Z,11.50
2023-01-20T05:49:13.348Z,11.30
2023-01-20T05:51:40.405Z,11.20
2023-01-20T05:54:07.429Z,11.20
2023-01-20T05:56:34.459Z,11.10
2023-01-20T05:59:01.466Z,11.00
2023-01-20T06:01:28.568Z,10.90
2023-01-20T06:03:55.589Z,10.80
2023-01-20T06:06:22.574Z,10.80
2023-01-20T06:08:52.296Z,10.80
2023-01-20T06:11:19.770Z,10.80
2023-01-20T06:13:48.518Z,10.70
2023-01-20T06:16:17.889Z,10.70
2023-01-20T06:18:45.217Z,10.70
2023-01-20T06:21:12.398Z,10.60
2023-01-20T06:23:39.467Z,10.50
2023-01-20T06:26:08.883Z,10.40
2023-01-20T06:28:35.955Z,10.30
2023-01-20T06:31:08.211Z,10.40
2023-01-20T06:33:35.664Z,10.50
2023-01-20T06:36:05.576Z,10.50
2023-01-20T06:38:34.858Z,10.60
2023-01-20T06:41:07.327Z,10.80
2023-01-20T06:43:35.449Z,11.00
2023-01-20T06:46:04.754Z,11.10
2023-01-20T06:48:32.652Z,11.20
2023-01-20T06:51:05.076Z,11.30
2023-01-20T06:53:32.210Z,11.20
2023-01-20T06:56:00.852Z,11.20
2023-01-20T06:58:30.683Z,11.30
2023-01-20T07:01:04.109Z,11.30
2023-01-20T07:03:31.156Z,11.20
2023-01-20T07:06:00.911Z,11.30
2023-01-20T07:08:28.805Z,11.30
2023-01-20T07:10:56.385Z,11.40
2023-01-20T07:13:23.396Z,11.50
2023-01-20T07:15:50.317Z,11.50
2023-01-20T07:18:17.244Z,11.50
2023-01-20T07:20:44.192Z,11.60
2023-01-20T07:23:11.390Z,11.80
2023-01-20T07:25:39.528Z,11.90
2023-01-20T07:28:06.486Z,12.10
2023-01-20T07:30:33.599Z,12.10
2023-01-20T07:33:00.775Z,12.00
2023-01-20T07:35:27.792Z,12.10
2023-01-20T07:37:55.155Z,12.30
2023-01-20T07:40:22.139Z,12.30
2023-01-20T07:42:49.140Z,12.50
2023-01-20T07:45:17.030Z,12.50
2023-01-20T07:47:44.290Z,12.50
2023-01-20T07:50:11.404Z,12.40
2023-01-20T07:52:38.428Z,12.50
2023-01-20T07:55:05.695Z,12.50
2023-01-20T07:57:33.538Z,12.60
2023-01-20T08:00:00.493Z,12.60
2023-01-20T08:02:27.453Z,12.60
2023-01-20T08:04:54.507Z,12.50
2023-01-20T08:07:21.479Z,12.40
2023-01-20T08:09:50.077Z,12.20
2023-01-20T08:12:17.142Z,12.20
2023-01-20T08:14:44.077Z,12.20
2023-01-20T08:17:11.089Z,12.10
2023-01-20T08:19:38.061Z,12.30
2023-01-20T08:22:05.174Z,12.40
2023-01-20T08:24:32.146Z,12.50
2023-01-20T08:26:59.298Z,12.60
2023-01-20T08:29:26.281Z,12.70
2023-01-20T08:31:53.347Z,12.60
2023-01-20T08:34:21.444Z,12.60
2023-01-20T08:36:50.123Z,12.60
2023-01-20T08:39:19.128Z,12.80
2023-01-20T08:41:47.256Z,12.80
2023-01-20T08:44:15.645Z,12.90
2023-01-20T08:46:43.272Z,12.90
2023-01-20T08:49:13.058Z,12.70
2023-01-20T08:51:40.553Z,12.70
2023-01-20T08:54:07.714Z,12.70
2023-01-20T08:56:36.450Z,12.70
2023-01-20T08:59:04.023Z,12.80
2023-01-20T09:01:37.826Z,12.80
2023-01-20T09:04:07.087Z,12.80
2023-01-20T09:06:46.231Z,12.90
2023-01-20T09:09:15.642Z,12.80
2023-01-20T09:11:44.932Z,12.90
2023-01-20T09:14:12.071Z,12.80
2023-01-20T09:16:38.994Z,12.70
2023-01-20T09:19:05.953Z,12.80
2023-01-20T09:21:33.775Z,12.60
2023-01-20T09:24:00.802Z,12.60
2023-01-20T09:26:35.663Z,12.60
2023-01-20T09:29:09.397Z,12.60
2023-01-20T09:31:45.836Z,12.40
2023-01-20T09:34:19.630Z,12.50
2023-01-20T09:37:21.305Z,12.50
2023-01-20T09:40:07.342Z,12.30
2023-01-20T09:43:17.557Z,12.10
2023-01-20T09:45:59.962Z,12.20
2023-01-20T09:49:21.855Z,12.20
2023-01-20T09:52:29.490Z,12.20
2023-01-20T09:55:02.145Z,12.10
2023-01-20T09:57:33.778Z,12.10
2023-01-20T10:00:17.736Z,12.10
2023-01-20T10:03:02.814Z,12.10
2023-01-20T10:05:37.632Z,12.10
2023-01-20T10:08:52.594Z,12.30
2023-01-20T10:11:28.931Z,12.20
2023-01-20T10:14:25.413Z,12.20
2023-01-20T10:17:01.818Z,12.30
2023-01-20T10:19:38.564Z,12.30
2023-01-20T10:22:13.400Z,12.40
2023-01-20T10:25:02.942Z,12.30
2023-01-20T10:27:34.029Z,12.30
2023-01-20T10:30:12.027Z,12.40
2023-01-20T10:32:45.680Z,12.50
2023-01-20T10:35:26.279Z,12.70
2023-01-20T10:37:55.707Z,12.90
2023-01-20T10:40:52.092Z,13.00
2023-01-20T10:43:19.995Z,12.90
2023-01-20T10:46:04.920Z,13.10
2023-01-20T10:49:15.980Z,13.00
2023-01-20T10:52:04.341Z,12.90
2023-01-20T10:54:46.352Z,12.90
2023-01-20T10:57:15.680Z,12.90
2023-01-20T10:59:54.756Z,13.00
2023-01-20T11:02:34.849Z,13.00
2023-01-20T11:05:16.368Z,13.00
2023-01-20T11:07:44.907Z,12.80
2023-01-20T11:10:24.974Z,12.70
2023-01-20T11:12:55.569Z,12.70
2023-01-20T11:15:27.632Z,12.90
2023-01-20T11:18:16.249Z,13.00
2023-01-20T11:20:46.129Z,13.10
2023-01-20T11:23:37.785Z,13.30
2023-01-20T11:26:32.109Z,13.20
2023-01-20T11:29:03.708Z,13.40
2023-01-20T11:31:58.146Z,13.30
2023-01-20T11:34:32.219Z,13.40
2023-01-20T11:37:05.150Z,13.50
2023-01-20T11:39:43.890Z,13.50
2023-01-20T11:42:24.882Z,13.70
2023-01-20T11:45:25.551Z,13.70
2023-01-20T11:48:19.229Z,13.80
2023-01-20T11:50:57.571Z,13.70
2023-01-20T11:53:27.450Z,13.70
2023-01-20T11:55:58.420Z,13.90
2023-01-20T11:58:45.809Z,13.90
2023-01-20T12:01:27.934Z,13.90
2023-01-20T12:03:57.969Z,14.00
2023-01-20T12:06:46.671Z,14.00
2023-01-20T12:09:16.802Z,13.90
2023-01-20T12:11:57.623Z,14.00
2023-01-20T12:14:34.037Z,14.00
2023-01-20T12:17:11.571Z,14.00
2023-01-20T12:19:53.794Z,13.90
2023-01-20T12:22:46.943Z,14.00
2023-01-20T12:25:29.505Z,14.00
2023-01-20T12:28:10.468Z,14.00
2023-01-20T12:30:43.840Z,14.10
2023-01-20T12:33:23.486Z,14.10
2023-01-20T12:36:26.932Z,14.10
2023-01-20T12:39:08.236Z,14.30
2023-01-20T12:42:04.536Z,14.30
2023-01-20T12:45:21.984Z,14.20
2023-01-20T12:48:11.113Z,14.40
2023-01-20T12:51:05.638Z,14.40
2023-01-20T12:53:42.386Z,14.40
2023-01-20T12:56:33.478Z,14.20
2023-01-20T12:59:17.285Z,14.40
2023-01-20T13:01:52.945Z,14.40
2023-01-20T13:04:54.155Z,14.30
2023-01-20T13:07:21.081Z,14.30
2023-01-20T13:09:47.963Z,14.20
2023-01-20T13:12:40.561Z,14.30
2023-01-20T13:15:28.379Z,14.50
2023-01-20T13:18:19.689Z,14.70
2023-01-20T13:20:47.501Z,14.90
2023-01-20T13:23:17.947Z,14.80
2023-01-20T13:25:47.072Z,14.90
2023-01-20T13:28:17.872Z,15.00
2023-01-20T13:30:48.235Z,15.20
2023-01-20T13:33:37.442Z,15.30
2023-01-20T13:36:24.522Z,15.30
2023-01-20T13:39:29.421Z,15.50
2023-01-20T13:41:56.823Z,15.30
2023-01-20T13:44:42.275Z,15.40
2023-01-20T13:47:13.407Z,15.40
2023-01-20T13:49:54.563Z,15.40
2023-01-20T13:53:07.376Z,15.50
2023-01-20T13:55:41.274Z,15.40
2023-01-20T13:58:15.461Z,15.40
2023-01-20T14:00:42.653Z,15.70
2023-01-20T14:03:32.505Z,15.50
2023-01-20T14:06:00.553Z,15.30
2023-01-20T14:08:31.230Z,15.20
2023-01-20T14:11:11.635Z,15.00
2023-01-20T14:13:38.888Z,14.80
2023-01-20T14:16:17.823Z,14.90
2023-01-20T14:18:44.879Z,14.90
2023-01-20T14:21:27.663Z,14.80
2023-01-20T14:23:54.707Z,14.80
2023-01-20T14:26:28.080Z,14.70
2023-01-20T14:29:05.123Z,14.70
2023-01-20T14:31:40.575Z,14.70
2023-01-20T14:34:23.226Z,14.70
2023-01-20T14:36:51.474Z,14.80
2023-01-20T14:39:28.051Z,14.70
2023-01-20T14:41:59.759Z,14.70
2023-01-20T14:44:34.467Z,14.70
2023-01-20T14:47:03.467Z,14.80
2023-01-20T14:49:39.439Z,14.70
2023-01-20T14:52:09.319Z,14.60
2023-01-20T14:54:42.203Z,14.50
2023-01-20T14:57:27.714Z,14.50
2023-01-20T15:00:29.674Z,14.60
2023-01-20T15:03:10.925Z,14.70
2023-01-20T15:05:42.539Z,14.60
2023-01-20T15:08:15.052Z,14.70
2023-01-20T15:10:42.730Z,14.60
2023-01-20T15:13:26.377Z,14.40
2023-01-20T15:16:07.798Z,14.40
2023-01-20T15:18:34.837Z,14.40
2023-01-20T15:21:24.573Z,14.30
2023-01-20T15:23:52.852Z,14.30
2023-01-20T15:26:30.330Z,14.30
2023-01-20T15:28:58.698Z,14.30
2023-01-20T15:31:26.591Z,14.20
2023-01-20T15:33:54.663Z,14.10
2023-01-20T15:36:29.854Z,14.10
2023-01-20T15:38:56.776Z,14.00
2023-01-20T15:41:24.398Z,13.90
2023-01-20T15:43:52.536Z,14.00
2023-01-20T15:46:19.933Z,14.00
2023-01-20T15:48:47.032Z,14.10
2023-01-20T15:51:16.692Z,14.20
2023-01-20T15:53:44.717Z,14.20
2023-01-20T15:56:25.430Z,14.20
2023-01-20T15:58:52.692Z,14.20
2023-01-20T16:01:24.006Z,14.20
2023-01-20T16:03:52.693Z,14.20
2023-01-20T16:06:30.774Z,14.40
2023-01-20T16:09:00.234Z,14.40
2023-01-20T16:11:27.337Z,14.50
2023-01-20T16:13:54.965Z,14.50
2023-01-20T16:16:24.505Z,14.50
2023-01-20T16:18:53.177Z,14.60
2023-01-20T16:21:20.385Z,14.60
2023-01-20T16:23:47.429Z,14.50
2023-01-20T16:26:24.390Z,14.60
2023-01-20T16:28:53.567Z,14.60
2023-01-20T16:31:21.667Z,14.60
2023-01-20T16:33:48.855Z,14.60
2023-01-20T16:36:20.963Z,14.60
2023-01-20T16:38:48.871Z,14.50
2023-01-20T16:41:27.825Z,14.40
2023-01-20T16:43:55.901Z,14.40
2023-01-20T16:46:27.785Z,14.50
2023-01-20T16:48:59.459Z,14.60
2023-01-20T16:51:26.751Z,14.60
2023-01-20T16:53:56.361Z,14.40
2023-01-20T16:56:26.036Z,14.50
2023-01-20T16:58:54.759Z,14.60
2023-01-20T17:01:24.724Z,14.70
2023-01-20T17:03:53.966Z,14.80
2023-01-20T17:06:23.402Z,14.60
2023-01-20T17:08:52.973Z,14.50
2023-01-20T17:11:30.546Z,14.50
2023-01-20T17:13:57.939Z,14.50
2023-01-20T17:16:28.383Z,14.40
2023-01-20T17:18:58.550Z,14.30
2023-01-20T17:21:28.520Z,14.30
2023-01-20T17:23:59.641Z,14.20
2023-01-20T17:26:27.203Z,14.20
2023-01-20T17:28:59.451Z,14.10
2023-01-20T17:31:28.171Z,14.10
2023-01-20T17:33:55.182Z,14.10
2023-01-20T17:36:22.246Z,14.00
2023-01-20T17:38:49.233Z,14.00
2023-01-20T17:41:16.227Z,14.00
2023-01-20T17:43:46.520Z,13.90
2023-01-20T17:46:15.777Z,13.70
2023-01-20T17:48:43.440Z,13.70
2023-01-20T17:51:16.091Z,13.70
2023-01-20T17:53:43.798Z,13.70
2023-01-20T17:56:13.564Z,13.70
2023-01-20T17:58:43.522Z,13.80
2023-01-20T18:01:11.238Z,13.90
2023-01-20T18:03:40.019Z,13.90
2023-01-20T18:06:09.563Z,13.90
2023-01-20T18:08:38.162Z,13.90
2023-01-20T18:11:15.328Z,13.80
2023-01-20T18:13:45.022Z,13.80
2023-01-20T18:16:13.857Z,13.80
2023-01-20T18:18:45.507Z,13.90
2023-01-20T18:21:15.356Z,13.90
2023-01-20T18:23:43.682Z,13.90
2023-01-20T18:26:13.812Z,13.90
2023-01-20T18:28:41.987Z,13.90
2023-01-20T18:31:18.416Z,13.90
2023-01-20T18:33:52.312Z,13.70
2023-01-20T18:36:23.839Z,13.50
2023-01-20T18:38:58.728Z,13.30
2023-01-20T18:41:27.737Z,12.90
2023-01-20T18:43:55.200Z,12.80
2023-01-20T18:46:22.518Z,12.70
2023-01-20T18:48:51.953Z,12.70
2023-01-20T18:51:21.146Z,12.60
2023-01-20T18:53:54.868Z,12.60
2023-01-20T18:56:22.688Z,12.60
2023-01-20T18:58:49.895Z,12.50
2023-01-20T19:01:19.862Z,12.50
2023-01-20T19:03:47.771Z,12.40
2023-01-20T19:06:24.216Z,12.40
2023-01-20T19:08:52.258Z,12.40
2023-01-20T19:11:22.617Z,12.40
2023-01-20T19:13:51.271Z,12.30
2023-01-20T19:16:20.183Z,12.30
2023-01-20T19:18:55.816Z,12.20
2023-01-20T19:21:24.095Z,12.20
2023-01-20T19:23:53.049Z,12.10
2023-01-20T19:26:21.198Z,11.90
2023-01-20T19:28:55.405Z,12.00
2023-01-20T19:31:22.493Z,12.00
2023-01-20T19:33:50.148Z,11.90
2023-01-20T19:36:18.886Z,11.80
2023-01-20T19:38:46.035Z,11.80
2023-01-20T19:41:28.308Z,11.80
2023-01-20T19:43:57.592Z,11.80
2023-01-20T19:46:28.710Z,11.70
2023-01-20T19:48:57.660Z,11.50
2023-01-20T19:51:25.617Z,11.50
2023-01-20T19:53:58.068Z,11.40
2023-01-20T19:56:27.670Z,11.50
2023-01-20T19:58:55.654Z,11.40
2023-01-20T20:01:31.123Z,11.30
2023-01-20T20:03:58.973Z,11.30
2023-01-20T20:06:25.984Z,11.30
2023-01-20T20:08:55.799Z,11.20
2023-01-20T20:11:22.931Z,11.40
2023-01-20T20:13:52.693Z,11.30
2023-01-20T20:16:19.628Z,11.40
2023-01-20T20:18:51.006Z,11.30
2023-01-20T20:21:18.423Z,11.40
2023-01-20T20:23:49.202Z,11.50
2023-01-20T20:26:16.340Z,11.60
2023-01-20T20:28:43.502Z,11.70
2023-01-20T20:31:10.752Z,11.50
2023-01-20T20:33:37.910Z,11.50
2023-01-20T20:36:09.376Z,11.50
2023-01-20T20:38:37.131Z,11.30
2023-01-20T20:41:08.620Z,11.40
2023-01-20T20:43:37.336Z,11.40
2023-01-20T20:46:07.019Z,11.50
2023-01-20T20:48:35.321Z,11.60
2023-01-20T20:51:11.543Z,11.60
2023-01-20T20:53:39.141Z,11.50
2023-01-20T20:56:14.526Z,11.50
2023-01-20T20:58:55.526Z,11.40
2023-01-20T21:01:28.430Z,11.30
2023-01-20T21:03:57.719Z,11.10
2023-01-20T21:06:25.776Z,11.10
2023-01-20T21:08:53.105Z,11.20
2023-01-20T21:11:20.664Z,11.30
2023-01-20T21:13:50.891Z,11.40
2023-01-20T21:16:21.943Z,11.30
2023-01-20T21:18:50.249Z,11.30
2023-01-20T21:21:17.583Z,11.20
2023-01-20T21:23:52.000Z,11.20
2023-01-20T21:26:19.930Z,11.10
2023-01-20T21:28:49.281Z,11.20
2023-01-20T21:31:21.055Z,11.30
2023-01-20T21:33:53.610Z,11.30
2023-01-20T21:36:21.460Z,11.30
2023-01-20T21:38:48.841Z,11.30
2023-01-20T21:41:17.096Z,11.40
2023-01-20T21:44:04.254Z,11.40
2023-01-20T21:46:36.495Z,11.30
2023-01-20T21:49:24.802Z,11.30
2023-01-20T21:52:10.563Z,11.40
2023-01-20T21:54:39.804Z,11.40
2023-01-20T21:57:07.405Z,11.50
2023-01-20T21:59:34.293Z,11.40
2023-01-20T22:02:01.347Z,11.30
2023-01-20T22:04:29.067Z,11.20
2023-01-20T22:06:56.083Z,11.20
2023-01-20T22:09:23.301Z,11.20
2023-01-20T22:11:50.381Z,11.20
2023-01-20T22:14:17.442Z,11.30
2023-01-20T22:16:44.481Z,11.30
2023-01-20T22:19:14.498Z,11.20
2023-01-20T22:21:41.963Z,11.30
2023-01-20T22:24:09.827Z,11.40
2023-01-20T22:26:37.301Z,11.40
2023-01-20T22:29:04.399Z,11.20
2023-01-20T22:31:34.267Z,11.20
2023-01-20T22:34:06.278Z,11.00
2023-01-20T22:36:34.390Z,11.10
2023-01-20T22:39:02.291Z,11.20
2023-01-20T22:41:29.354Z,11.20
2023-01-20T22:43:56.690Z,11.20
2023-01-20T22:46:25.956Z,11.20
2023-01-20T22:48:54.438Z,11.20
2023-01-20T22:51:23.278Z,11.30
2023-01-20T22:53:52.238Z,11.20
2023-01-20T22:56:21.669Z,11.10
2023-01-20T22:58:48.643Z,10.90
2023-01-20T23:01:30.364Z,10.90
2023-01-20T23:04:00.157Z,10.80
2023-01-20T23:06:28.866Z,10.90
2023-01-20T23:08:55.970Z,11.00
2023-01-20T23:11:24.050Z,11.10
2023-01-20T23:13:52.064Z,11.10
2023-01-20T23:16:22.309Z,11.00
2023-01-20T23:18:50.608Z,11.10
2023-01-20T23:21:18.182Z,11.20
2023-01-20T23:23:45.462Z,11.00
2023-01-20T23:26:17.718Z,11.20
2023-01-20T23:28:45.955Z,11.20
2023-01-20T23:31:15.365Z,11.30
2023-01-20T23:33:43.920Z,11.00
2023-01-20T23:36:13.117Z,11.10
2023-01-20T23:38:40.441Z,11.10
2023-01-20T23:41:07.386Z,11.20
2023-01-20T23:43:34.473Z,11.30
2023-01-20T23:46:03.676Z,11.30
2023-01-20T23:48:31.085Z,11.30
2023-01-20T23:50:59.938Z,11.20
2023-01-20T23:53:28.577Z,11.20
2023-01-20T23:56:03.431Z,11.10
2023-01-20T23:58:30.749Z,11.10
